Welcome to Northern Hawkes Bay. New Zealand.
PWS Header
      nz Flag



Hit Counter


W3C Valid W3C Valid logo


    Wairoa

Select any of the Stations below to visit their websites.










Historic Data from Weather Underground
Select the location of interest below. Wairoa is the default. Please have patience, this Data is slow to load in.
Northern Hawkes Bay Historical Data
Daily Summary for January 2, 2017 Units:  Metric    English   Both
« Previous Day
Next Day »
Daily Weekly Monthly Yearly Custom
  High: Low: Average:
Temperature: 24.8 °C 13.9 °C 18.5 °C
Dew Point: 17.1 °C 12.6 °C 14.3 °C
Humidity: 99% 59% 78%
Wind Speed: 24.5km/h 0.0km/h 10.2km/h
Wind Gust: 42.8km/h - -
Wind- - WSW
Pressure: 1016.5 hPa 1005.0 hPa -
Precipitation: 2.8 mm    
Historical Graphs
 
 
Tabular Data for January 2, 2017
Time Temperature Dew Point Pressure Wind Wind Speed Wind Gust Humidity Rainfall Rate (Hourly) solar
00:03 20.9 °C 13.8 °C 1006.7 hPa North 7.2 km/h 23.3 km/h 64% 0.0 mm 0 W/m2
00:08 21.0 °C 13.7 °C 1006.7 hPa North 6.1 km/h 19.5 km/h 63% 0.0 mm 0 W/m2
00:13 21.0 °C 13.7 °C 1006.7 hPa North 7.2 km/h 19.5 km/h 63% 0.0 mm 0 W/m2
00:18 20.9 °C 14.1 °C 1006.7 hPa North 6.1 km/h 18.3 km/h 65% 0.0 mm 0 W/m2
00:23 20.7 °C 13.9 °C 1006.7 hPa North 12.2 km/h 18.3 km/h 65% 0.0 mm 0 W/m2
00:28 20.7 °C 13.9 °C 1006.3 hPa NNW 8.7 km/h 17.2 km/h 65% 0.0 mm 0 W/m2
00:33 20.9 °C 13.8 °C 1006.3 hPa North 8.7 km/h 23.3 km/h 64% 0.0 mm 0 W/m2
00:38 20.8 °C 13.8 °C 1006.3 hPa North 8.7 km/h 23.3 km/h 64% 0.0 mm 0 W/m2
00:43 20.7 °C 13.9 °C 1006.7 hPa North 7.2 km/h 19.5 km/h 65% 0.0 mm 0 W/m2
01:01 20.1 °C 14.2 °C 1006.3 hPa NNW 7.2 km/h 15.8 km/h 69% 0.0 mm 0 W/m2
01:07 20.1 °C 14.0 °C 1006.3 hPa North 11.1 km/h 18.3 km/h 68% 0.0 mm 0 W/m2
01:12 20.3 °C 14.2 °C 1006.0 hPa North 9.7 km/h 19.5 km/h 68% 0.0 mm 0 W/m2
01:17 20.3 °C 14.0 °C 1006.0 hPa North 12.2 km/h 19.5 km/h 67% 0.0 mm 0 W/m2
01:22 20.3 °C 14.0 °C 1006.0 hPa North 11.1 km/h 18.3 km/h 67% 0.0 mm 0 W/m2
01:27 20.3 °C 14.2 °C 1006.0 hPa NNW 13.4 km/h 18.3 km/h 68% 0.0 mm 0 W/m2
01:32 20.1 °C 14.2 °C 1006.0 hPa NNW 7.2 km/h 17.2 km/h 69% 0.0 mm 0 W/m2
01:37 19.9 °C 14.7 °C 1006.3 hPa NNW 9.7 km/h 17.2 km/h 72% 0.0 mm 0 W/m2
01:42 19.7 °C 14.9 °C 1006.0 hPa NNW 12.2 km/h 17.2 km/h 74% 0.0 mm 0 W/m2
01:47 19.5 °C 14.8 °C 1006.0 hPa NNW 13.4 km/h 21.9 km/h 74% 0.0 mm 0 W/m2
01:52 19.2 °C 14.9 °C 1005.6 hPa North 7.2 km/h 21.9 km/h 76% 0.0 mm 0 W/m2
01:57 18.9 °C 15.2 °C 1005.6 hPa NNW 9.7 km/h 19.5 km/h 79% 0.0 mm 0 W/m2
02:02 18.9 °C 15.4 °C 1005.6 hPa NNW 11.1 km/h 20.9 km/h 80% 0.0 mm 0 W/m2
02:07 19.0 °C 15.1 °C 1005.6 hPa North 9.7 km/h 20.9 km/h 78% 0.0 mm 0 W/m2
02:12 19.2 °C 15.1 °C 1005.6 hPa NNW 9.7 km/h 21.9 km/h 77% 0.0 mm 0 W/m2
02:17 19.5 °C 14.9 °C 1005.6 hPa NNW 13.4 km/h 24.5 km/h 75% 0.3 mm 0 W/m2
02:22 19.7 °C 14.9 °C 1005.3 hPa NNW 9.7 km/h 24.5 km/h 74% 0.3 mm 0 W/m2
02:27 19.6 °C 14.8 °C 1005.3 hPa North 6.1 km/h 20.9 km/h 74% 0.3 mm 0 W/m2
02:32 19.8 °C 14.8 °C 1005.6 hPa North 9.7 km/h 19.5 km/h 73% 0.3 mm 0 W/m2
02:37 19.8 °C 14.8 °C 1005.6 hPa NNW 6.1 km/h 19.5 km/h 73% 0.3 mm 0 W/m2
02:42 19.8 °C 14.8 °C 1005.6 hPa NNW 6.1 km/h 15.8 km/h 73% 0.3 mm 0 W/m2
02:47 19.8 °C 14.8 °C 1005.6 hPa NNW 7.2 km/h 11.1 km/h 73% 0.3 mm 0 W/m2
02:52 19.8 °C 14.6 °C 1005.3 hPa NNW 11.1 km/h 14.8 km/h 72% 0.3 mm 0 W/m2
02:57 19.9 °C 14.7 °C 1005.6 hPa NNW 8.7 km/h 15.8 km/h 72% 0.3 mm 0 W/m2
03:02 19.9 °C 14.5 °C 1005.3 hPa North 11.1 km/h 18.3 km/h 71% 0.3 mm 0 W/m2
03:07 20.0 °C 14.4 °C 1005.3 hPa North 11.1 km/h 19.5 km/h 70% 0.3 mm 0 W/m2
03:12 20.1 °C 14.2 °C 1005.3 hPa North 9.7 km/h 19.5 km/h 69% 0.3 mm 0 W/m2
03:17 20.1 °C 14.2 °C 1005.3 hPa North 7.2 km/h 19.5 km/h 69% 0.0 mm 0 W/m2
03:22 20.2 °C 14.3 °C 1005.6 hPa North 9.7 km/h 20.9 km/h 69% 0.0 mm 0 W/m2
03:27 20.2 °C 14.3 °C 1005.6 hPa NNW 7.2 km/h 20.9 km/h 69% 0.0 mm 0 W/m2
03:32 20.1 °C 14.2 °C 1005.6 hPa NNW 12.2 km/h 18.3 km/h 69% 0.0 mm 0 W/m2
03:37 20.2 °C 14.3 °C 1005.6 hPa NW 6.1 km/h 18.3 km/h 69% 0.0 mm 0 W/m2
03:42 20.0 °C 14.2 °C 1005.6 hPa NNW 7.2 km/h 15.8 km/h 69% 0.0 mm 0 W/m2
03:47 20.1 °C 14.2 °C 1005.6 hPa North 2.6 km/h 13.4 km/h 69% 0.0 mm 0 W/m2
03:52 20.2 °C 14.3 °C 1005.6 hPa North 8.7 km/h 13.4 km/h 69% 0.0 mm 0 W/m2
03:57 20.2 °C 14.1 °C 1005.6 hPa NNE 2.6 km/h 13.4 km/h 68% 0.0 mm 0 W/m2
04:02 20.0 °C 14.2 °C 1006.0 hPa NNE 2.6 km/h 11.1 km/h 69% 0.0 mm 0 W/m2
04:07 19.9 °C 14.3 °C 1005.6 hPa NNE 6.1 km/h 13.4 km/h 70% 0.0 mm 0 W/m2
04:12 19.9 °C 14.5 °C 1005.6 hPa North 13.4 km/h 17.2 km/h 71% 0.0 mm 0 W/m2
04:17 19.9 °C 14.5 °C 1005.6 hPa North 2.6 km/h 17.2 km/h 71% 0.0 mm 0 W/m2
04:23 19.8 °C 14.4 °C 1005.6 hPa North 8.7 km/h 15.8 km/h 71% 0.0 mm 0 W/m2
04:28 19.8 °C 14.4 °C 1005.6 hPa North 6.1 km/h 12.2 km/h 71% 0.0 mm 0 W/m2
04:33 19.8 °C 14.4 °C 1005.6 hPa NNE 7.2 km/h 12.2 km/h 71% 0.0 mm 0 W/m2
04:38 19.8 °C 14.4 °C 1005.6 hPa North 5.0 km/h 12.2 km/h 71% 0.0 mm 0 W/m2
04:43 19.7 °C 14.3 °C 1005.6 hPa North 7.2 km/h 12.2 km/h 71% 0.0 mm 0 W/m2
04:48 19.8 °C 14.2 °C 1005.6 hPa North 5.0 km/h 12.2 km/h 70% 0.0 mm 0 W/m2
04:53 19.8 °C 14.2 °C 1005.3 hPa North 8.7 km/h 12.2 km/h 70% 0.0 mm 0 W/m2
04:58 19.6 °C 14.2 °C 1005.6 hPa North 5.0 km/h 12.2 km/h 71% 0.0 mm 0 W/m2
05:03 19.3 °C 14.1 °C 1005.3 hPa North 2.6 km/h 9.7 km/h 72% 0.0 mm 0 W/m2
05:08 19.3 °C 14.1 °C 1005.3 hPa North 3.5 km/h 8.7 km/h 72% 0.0 mm 0 W/m2
05:13 19.3 °C 14.3 °C 1005.3 hPa NE 5.0 km/h 14.8 km/h 73% 0.0 mm 0 W/m2
05:18 19.3 °C 14.3 °C 1005.3 hPa NNE 5.0 km/h 14.8 km/h 73% 0.0 mm 0 W/m2
05:23 19.2 °C 14.3 °C 1005.0 hPa North 7.2 km/h 12.2 km/h 73% 0.0 mm 0 W/m2
05:28 19.3 °C 14.3 °C 1005.3 hPa North 7.2 km/h 15.8 km/h 73% 0.0 mm 0 W/m2
05:33 19.6 °C 14.2 °C 1005.3 hPa North 8.7 km/h 15.8 km/h 71% 0.0 mm 0 W/m2
05:53 20.2 °C 14.1 °C 1005.6 hPa NNW 17.2 km/h 20.9 km/h 68% 0.0 mm 6 W/m2
05:58 20.4 °C 14.1 °C 1005.6 hPa NNW 6.1 km/h 20.9 km/h 67% 0.0 mm 10 W/m2
06:03 20.5 °C 14.2 °C 1005.6 hPa NNW 9.7 km/h 20.9 km/h 67% 0.0 mm 14 W/m2
06:08 20.6 °C 14.3 °C 1005.6 hPa NNW 9.7 km/h 19.5 km/h 67% 0.0 mm 20 W/m2
06:13 20.8 °C 14.2 °C 1005.6 hPa NNW 9.7 km/h 23.3 km/h 66% 0.0 mm 26 W/m2
06:18 20.7 °C 14.1 °C 1005.6 hPa NW 9.7 km/h 23.3 km/h 66% 0.0 mm 27 W/m2
06:23 20.6 °C 14.3 °C 1005.6 hPa NNW 8.7 km/h 15.8 km/h 67% 0.0 mm 26 W/m2
06:28 20.6 °C 14.3 °C 1005.6 hPa NNW 9.7 km/h 15.8 km/h 67% 0.0 mm 36 W/m2
06:33 20.7 °C 14.4 °C 1005.6 hPa North 7.2 km/h 15.8 km/h 67% 0.0 mm 58 W/m2
06:38 21.0 °C 14.2 °C 1005.6 hPa North 9.7 km/h 15.8 km/h 65% 0.0 mm 73 W/m2
06:43 21.2 °C 14.4 °C 1005.6 hPa North 6.1 km/h 15.8 km/h 65% 0.0 mm 92 W/m2
06:49 21.3 °C 14.2 °C 1006.0 hPa North 6.1 km/h 17.2 km/h 64% 0.0 mm 83 W/m2
06:54 21.4 °C 14.6 °C 1006.0 hPa North 5.0 km/h 17.2 km/h 65% 0.0 mm 125 W/m2
06:59 21.7 °C 14.6 °C 1006.0 hPa North 5.0 km/h 14.8 km/h 64% 0.0 mm 130 W/m2
07:04 21.9 °C 14.6 °C 1006.3 hPa NNW 8.7 km/h 14.8 km/h 63% 0.0 mm 86 W/m2
07:09 21.8 °C 14.7 °C 1006.7 hPa NNW 8.7 km/h 14.8 km/h 64% 0.0 mm 73 W/m2
07:14 21.5 °C 14.7 °C 1006.7 hPa NNW 5.0 km/h 12.2 km/h 65% 0.0 mm 84 W/m2
07:19 21.4 °C 14.8 °C 1006.7 hPa NNW 6.1 km/h 12.2 km/h 66% 0.0 mm 63 W/m2
07:24 21.6 °C 14.8 °C 1006.7 hPa NNW 6.1 km/h 13.4 km/h 65% 0.0 mm 183 W/m2
07:29 21.9 °C 14.8 °C 1006.7 hPa NNW 8.7 km/h 14.8 km/h 64% 0.0 mm 211 W/m2
07:35 22.1 °C 14.7 °C 1006.7 hPa NNW 11.1 km/h 14.8 km/h 63% 0.0 mm 82 W/m2
07:40 21.9 °C 14.8 °C 1006.7 hPa NNW 9.7 km/h 15.8 km/h 64% 0.0 mm 130 W/m2
07:45 21.9 °C 15.1 °C 1006.7 hPa NNW 9.7 km/h 17.2 km/h 65% 0.0 mm 125 W/m2
07:50 22.0 °C 14.9 °C 1007.0 hPa NNW 8.7 km/h 17.2 km/h 64% 0.0 mm 138 W/m2
07:55 22.1 °C 15.0 °C 1007.0 hPa NNW 9.7 km/h 17.2 km/h 64% 0.0 mm 142 W/m2
08:00 22.1 °C 15.0 °C 1007.0 hPa NNW 8.7 km/h 17.2 km/h 64% 0.0 mm 160 W/m2
08:05 22.2 °C 15.1 °C 1007.0 hPa NNW 12.2 km/h 18.3 km/h 64% 0.0 mm 145 W/m2
08:10 22.2 °C 15.1 °C 1007.0 hPa NNW 9.7 km/h 18.3 km/h 64% 0.0 mm 139 W/m2
08:15 22.3 °C 15.2 °C 1007.0 hPa NNW 12.2 km/h 24.5 km/h 64% 0.0 mm 192 W/m2
08:20 22.6 °C 15.2 °C 1007.3 hPa NNW 12.2 km/h 24.5 km/h 63% 0.0 mm 219 W/m2
08:25 22.9 °C 15.3 °C 1007.3 hPa NW 14.8 km/h 23.3 km/h 62% 0.0 mm 212 W/m2
08:30 22.9 °C 15.3 °C 1007.3 hPa NNW 9.7 km/h 24.5 km/h 62% 0.0 mm 164 W/m2
08:36 23.0 °C 15.3 °C 1007.3 hPa NNW 19.5 km/h 25.6 km/h 62% 0.0 mm 136 W/m2
08:41 22.9 °C 15.5 °C 1007.3 hPa NW 7.2 km/h 25.6 km/h 63% 0.0 mm 142 W/m2
08:46 22.9 °C 15.3 °C 1007.7 hPa NNW 8.7 km/h 25.6 km/h 62% 0.0 mm 165 W/m2
08:51 22.9 °C 15.3 °C 1007.3 hPa NNW 17.2 km/h 28.0 km/h 62% 0.0 mm 184 W/m2
08:56 22.9 °C 15.5 °C 1007.7 hPa NW 13.4 km/h 28.0 km/h 63% 0.0 mm 196 W/m2
09:01 22.9 °C 15.3 °C 1007.7 hPa NW 12.2 km/h 28.0 km/h 62% 0.0 mm 149 W/m2
09:06 22.9 °C 15.5 °C 1007.7 hPa NNW 13.4 km/h 27.0 km/h 63% 0.0 mm 143 W/m2
09:11 22.9 °C 15.3 °C 1007.7 hPa NW 12.2 km/h 21.9 km/h 62% 0.0 mm 132 W/m2
09:16 22.9 °C 15.5 °C 1007.7 hPa NW 12.2 km/h 20.9 km/h 63% 0.0 mm 126 W/m2
09:21 22.9 °C 15.5 °C 1008.0 hPa NNW 8.7 km/h 24.5 km/h 63% 0.0 mm 120 W/m2
09:26 22.9 °C 15.5 °C 1008.0 hPa NNW 9.7 km/h 24.5 km/h 63% 0.0 mm 132 W/m2
09:31 23.0 °C 15.8 °C 1007.7 hPa NNW 8.7 km/h 19.5 km/h 64% 0.0 mm 130 W/m2
09:36 23.1 °C 15.9 °C 1008.0 hPa NNW 5.0 km/h 18.3 km/h 64% 0.0 mm 131 W/m2
09:42 23.1 °C 15.9 °C 1008.0 hPa North 9.7 km/h 17.2 km/h 64% 0.0 mm 152 W/m2
09:47 23.2 °C 16.1 °C 1008.0 hPa North 7.2 km/h 17.2 km/h 64% 0.0 mm 157 W/m2
09:52 23.3 °C 16.1 °C 1008.0 hPa North 7.2 km/h 15.8 km/h 64% 0.0 mm 153 W/m2
09:57 23.4 °C 16.4 °C 1008.0 hPa North 11.1 km/h 14.8 km/h 65% 0.0 mm 133 W/m2
10:02 23.4 °C 16.4 °C 1008.0 hPa NNW 8.7 km/h 15.8 km/h 65% 0.0 mm 147 W/m2
10:21 23.7 °C 16.0 °C 1008.0 hPa NNW 12.2 km/h 24.5 km/h 62% 0.0 mm 192 W/m2
10:26 23.9 °C 16.2 °C 1008.4 hPa NW 12.2 km/h 19.5 km/h 62% 0.0 mm 160 W/m2
10:31 23.8 °C 16.1 °C 1008.4 hPa NW 7.2 km/h 18.3 km/h 62% 0.0 mm 136 W/m2
10:36 23.7 °C 15.8 °C 1008.4 hPa NW 8.7 km/h 18.3 km/h 61% 0.0 mm 134 W/m2
10:41 23.7 °C 16.0 °C 1008.4 hPa NNW 6.1 km/h 14.8 km/h 62% 0.0 mm 125 W/m2
10:46 23.8 °C 16.3 °C 1008.4 hPa NNW 6.1 km/h 12.2 km/h 63% 0.0 mm 131 W/m2
10:51 23.8 °C 16.1 °C 1008.4 hPa NNW 7.2 km/h 9.7 km/h 62% 0.0 mm 154 W/m2
10:56 24.0 °C 16.1 °C 1008.4 hPa NW 5.0 km/h 9.7 km/h 61% 0.0 mm 163 W/m2
11:01 24.3 °C 16.6 °C 1008.7 hPa NW 1.1 km/h 8.7 km/h 62% 0.0 mm 226 W/m2
11:06 24.8 °C 16.8 °C 1009.0 hPa WNW 3.5 km/h 6.1 km/h 61% 0.0 mm 210 W/m2
11:11 24.8 °C 16.3 °C 1009.0 hPa WSW 11.1 km/h 14.8 km/h 59% 0.0 mm 240 W/m2
11:16 24.1 °C 16.9 °C 1009.4 hPa SW 15.8 km/h 23.3 km/h 64% 0.0 mm 200 W/m2
11:21 22.8 °C 17.1 °C 1009.4 hPa SSW 11.1 km/h 23.3 km/h 70% 0.0 mm 184 W/m2
11:31 21.3 °C 16.7 °C 1010.0 hPa South 20.9 km/h 42.8 km/h 75% 0.0 mm 109 W/m2
11:36 19.1 °C 15.9 °C 1010.4 hPa South 20.9 km/h 42.8 km/h 82% 0.0 mm 213 W/m2
11:41 18.4 °C 16.2 °C 1010.4 hPa SSW 23.3 km/h 41.7 km/h 87% 0.0 mm 300 W/m2
11:46 18.3 °C 16.3 °C 1010.4 hPa SSW 21.9 km/h 35.6 km/h 88% 0.0 mm 260 W/m2
11:51 18.4 °C 15.8 °C 1010.4 hPa SSW 15.8 km/h 33.1 km/h 85% 0.0 mm 238 W/m2
11:56 18.5 °C 15.8 °C 1010.4 hPa South 18.3 km/h 36.7 km/h 84% 0.0 mm 331 W/m2
12:01 18.9 °C 15.8 °C 1010.7 hPa South 17.2 km/h 36.7 km/h 82% 0.0 mm 408 W/m2
12:06 19.2 °C 15.7 °C 1010.7 hPa South 15.8 km/h 31.7 km/h 80% 0.0 mm 304 W/m2
12:11 19.1 °C 15.6 °C 1010.7 hPa South 14.8 km/h 31.7 km/h 80% 0.0 mm 174 W/m2
12:16 18.7 °C 15.6 °C 1011.1 hPa South 12.2 km/h 28.0 km/h 82% 0.0 mm 125 W/m2
12:21 18.6 °C 15.5 °C 1011.4 hPa South 20.9 km/h 28.0 km/h 82% 0.0 mm 111 W/m2
12:26 18.4 °C 15.3 °C 1011.4 hPa SSW 11.1 km/h 25.6 km/h 82% 0.0 mm 114 W/m2
12:31 18.5 °C 15.6 °C 1011.4 hPa SSW 14.8 km/h 24.5 km/h 83% 0.0 mm 98 W/m2
12:37 18.2 °C 15.4 °C 1011.7 hPa SW 20.9 km/h 27.0 km/h 84% 0.0 mm 101 W/m2
12:42 18.1 °C 15.6 °C 1011.4 hPa SW 18.3 km/h 30.6 km/h 85% 0.0 mm 97 W/m2
12:47 17.9 °C 15.2 °C 1012.1 hPa SSW 19.5 km/h 30.6 km/h 84% 0.0 mm 136 W/m2
12:52 17.7 °C 15.3 °C 1012.1 hPa South 14.8 km/h 30.6 km/h 86% 0.0 mm 91 W/m2
12:57 17.7 °C 15.2 °C 1012.1 hPa South 14.8 km/h 27.0 km/h 85% 0.0 mm 122 W/m2
13:02 17.7 °C 14.8 °C 1012.1 hPa South 17.2 km/h 29.4 km/h 83% 0.0 mm 142 W/m2
13:07 17.7 °C 15.0 °C 1012.4 hPa South 19.5 km/h 33.1 km/h 84% 0.0 mm 109 W/m2
13:12 17.4 °C 14.7 °C 1012.4 hPa SSW 21.9 km/h 33.1 km/h 84% 0.0 mm 103 W/m2
13:17 17.3 °C 14.8 °C 1012.8 hPa SSW 13.4 km/h 29.4 km/h 85% 0.0 mm 116 W/m2
13:22 17.4 °C 15.1 °C 1012.8 hPa SSW 12.2 km/h 28.0 km/h 86% 0.0 mm 99 W/m2
13:27 17.2 °C 15.0 °C 1012.8 hPa SSW 13.4 km/h 25.6 km/h 87% 0.0 mm 88 W/m2
13:32 17.1 °C 14.9 °C 1012.8 hPa South 20.9 km/h 28.0 km/h 87% 0.0 mm 92 W/m2
13:37 16.9 °C 15.1 °C 1012.8 hPa South 14.8 km/h 30.6 km/h 89% 0.0 mm 107 W/m2
13:42 16.7 °C 15.2 °C 1012.8 hPa SSW 15.8 km/h 30.6 km/h 91% 0.0 mm 136 W/m2
13:47 16.4 °C 15.1 °C 1013.1 hPa SSW 15.8 km/h 30.6 km/h 92% 0.3 mm 143 W/m2
13:52 16.4 °C 15.4 °C 1013.1 hPa SSW 18.3 km/h 30.6 km/h 94% 0.5 mm 119 W/m2
13:57 16.2 °C 15.2 °C 1013.1 hPa SW 15.8 km/h 25.6 km/h 94% 0.5 mm 141 W/m2
14:02 16.0 °C 15.1 °C 1013.4 hPa SSW 15.8 km/h 28.0 km/h 94% 1.0 mm 107 W/m2
14:07 15.9 °C 15.3 °C 1013.4 hPa SSW 19.5 km/h 28.0 km/h 96% 1.0 mm 141 W/m2
14:12 15.9 °C 15.4 °C 1013.4 hPa SW 17.2 km/h 30.6 km/h 97% 1.3 mm 112 W/m2
14:17 15.9 °C 15.4 °C 1013.4 hPa SW 24.5 km/h 33.1 km/h 97% 1.3 mm 171 W/m2
14:22 15.7 °C 15.1 °C 1013.4 hPa SSW 18.3 km/h 33.1 km/h 96% 1.3 mm 162 W/m2
14:27 15.8 °C 15.2 °C 1013.8 hPa SSW 8.7 km/h 33.1 km/h 96% 1.3 mm 102 W/m2
14:32 15.6 °C 15.0 °C 1013.8 hPa SSW 15.8 km/h 28.0 km/h 96% 1.5 mm 141 W/m2
14:37 15.6 °C 15.0 °C 1013.8 hPa SSW 20.9 km/h 28.0 km/h 96% 1.5 mm 164 W/m2
14:42 15.7 °C 15.2 °C 1013.4 hPa SSW 19.5 km/h 28.0 km/h 97% 1.3 mm 242 W/m2
14:47 15.9 °C 15.4 °C 1013.4 hPa SSW 12.2 km/h 28.0 km/h 97% 1.3 mm 296 W/m2
14:52 16.1 °C 15.3 °C 1013.8 hPa SW 18.3 km/h 27.0 km/h 95% 1.3 mm 324 W/m2
14:57 16.1 °C 15.2 °C 1013.4 hPa SW 17.2 km/h 28.0 km/h 94% 1.3 mm 289 W/m2
15:02 16.0 °C 15.1 °C 1013.8 hPa WSW 13.4 km/h 29.4 km/h 94% 1.0 mm 162 W/m2
15:07 15.9 °C 14.9 °C 1013.4 hPa SSW 21.9 km/h 31.7 km/h 94% 1.0 mm 266 W/m2
15:12 16.1 °C 14.8 °C 1013.8 hPa South 13.4 km/h 31.7 km/h 92% 0.5 mm 224 W/m2
15:17 16.0 °C 14.4 °C 1013.8 hPa SSW 14.8 km/h 29.4 km/h 90% 0.5 mm 164 W/m2
15:22 16.1 °C 14.3 °C 1014.1 hPa SSW 14.8 km/h 28.0 km/h 89% 0.5 mm 147 W/m2
15:27 15.9 °C 14.3 °C 1013.8 hPa SSW 15.8 km/h 25.6 km/h 90% 0.5 mm 122 W/m2
15:32 15.9 °C 14.3 °C 1014.1 hPa SW 15.8 km/h 25.6 km/h 90% 0.3 mm 149 W/m2
15:37 16.0 °C 14.0 °C 1014.4 hPa SSW 13.4 km/h 25.6 km/h 88% 0.3 mm 148 W/m2
15:42 15.9 °C 14.1 °C 1014.1 hPa SSW 15.8 km/h 28.0 km/h 89% 0.3 mm 115 W/m2
15:47 15.9 °C 14.1 °C 1014.4 hPa SSW 14.8 km/h 28.0 km/h 89% 0.3 mm 145 W/m2
15:52 15.9 °C 13.9 °C 1014.1 hPa SSW 20.9 km/h 29.4 km/h 88% 0.0 mm 227 W/m2
15:57 16.1 °C 13.8 °C 1014.1 hPa SSW 15.8 km/h 29.4 km/h 86% 0.0 mm 232 W/m2
16:02 16.2 °C 13.9 °C 1014.1 hPa SSW 14.8 km/h 28.0 km/h 86% 0.0 mm 215 W/m2
16:07 16.0 °C 13.7 °C 1014.1 hPa SSW 14.8 km/h 27.0 km/h 86% 0.0 mm 261 W/m2
16:13 15.9 °C 13.9 °C 1013.8 hPa SSW 15.8 km/h 25.6 km/h 88% 0.0 mm 246 W/m2
16:18 16.1 °C 13.4 °C 1013.8 hPa SSW 14.8 km/h 25.6 km/h 84% 0.0 mm 167 W/m2
16:24 16.4 °C 13.3 °C 1013.8 hPa SSW 9.7 km/h 25.6 km/h 82% 0.0 mm 184 W/m2
16:29 16.5 °C 13.6 °C 1014.1 hPa SSW 13.4 km/h 21.9 km/h 83% 0.0 mm 177 W/m2
16:35 16.8 °C 13.6 °C 1014.1 hPa SSW 9.7 km/h 21.9 km/h 81% 0.0 mm 206 W/m2
16:40 17.0 °C 13.3 °C 1014.1 hPa SSW 14.8 km/h 21.9 km/h 79% 0.0 mm 208 W/m2
16:45 17.0 °C 13.3 °C 1014.1 hPa SW 11.1 km/h 23.3 km/h 79% 0.0 mm 186 W/m2
16:50 16.8 °C 12.6 °C 1014.1 hPa SSW 11.1 km/h 27.0 km/h 76% 0.0 mm 214 W/m2
16:55 16.9 °C 12.8 °C 1014.1 hPa SSW 12.2 km/h 27.0 km/h 77% 0.0 mm 183 W/m2
17:12 16.8 °C 13.3 °C 1014.1 hPa SSW 14.8 km/h 24.5 km/h 80% 0.0 mm 153 W/m2
17:17 16.8 °C 13.3 °C 1014.4 hPa SSW 15.8 km/h 28.0 km/h 80% 0.0 mm 157 W/m2
17:22 16.6 °C 12.9 °C 1014.4 hPa SSW 15.8 km/h 28.0 km/h 79% 0.0 mm 162 W/m2
17:27 16.6 °C 12.8 °C 1014.1 hPa South 13.4 km/h 28.0 km/h 78% 0.0 mm 124 W/m2
17:32 16.6 °C 13.2 °C 1014.1 hPa South 18.3 km/h 28.0 km/h 80% 0.0 mm 206 W/m2
17:37 16.7 °C 13.2 °C 1014.1 hPa South 14.8 km/h 24.5 km/h 80% 0.0 mm 149 W/m2
17:42 16.6 °C 13.5 °C 1014.1 hPa SSW 15.8 km/h 24.5 km/h 82% 0.0 mm 125 W/m2
17:47 16.6 °C 13.3 °C 1014.4 hPa SSW 8.7 km/h 24.5 km/h 81% 0.0 mm 123 W/m2
17:52 16.6 °C 13.2 °C 1014.1 hPa South 7.2 km/h 21.9 km/h 80% 0.0 mm 163 W/m2
17:57 16.6 °C 13.3 °C 1014.1 hPa South 8.7 km/h 19.5 km/h 81% 0.0 mm 106 W/m2
18:03 16.5 °C 13.2 °C 1014.4 hPa South 8.7 km/h 21.9 km/h 81% 0.0 mm 94 W/m2
18:08 16.4 °C 13.1 °C 1014.4 hPa South 13.4 km/h 21.9 km/h 81% 0.0 mm 135 W/m2
18:13 16.5 °C 12.8 °C 1014.1 hPa South 11.1 km/h 20.9 km/h 79% 0.0 mm 120 W/m2
18:18 16.5 °C 13.2 °C 1014.1 hPa South 9.7 km/h 20.9 km/h 81% 0.0 mm 83 W/m2
18:23 16.4 °C 12.9 °C 1014.1 hPa South 14.8 km/h 20.9 km/h 80% 0.0 mm 92 W/m2
18:28 16.3 °C 12.7 °C 1014.1 hPa South 7.2 km/h 19.5 km/h 79% 0.0 mm 64 W/m2
18:33 16.2 °C 12.8 °C 1014.1 hPa South 12.2 km/h 21.9 km/h 80% 0.0 mm 70 W/m2
18:38 16.1 °C 12.7 °C 1014.4 hPa SSW 18.3 km/h 25.6 km/h 80% 0.0 mm 55 W/m2
18:43 16.0 °C 12.7 °C 1014.1 hPa SSW 14.8 km/h 25.6 km/h 81% 0.0 mm 57 W/m2
18:48 16.0 °C 12.6 °C 1014.8 hPa South 11.1 km/h 25.6 km/h 80% 0.0 mm 50 W/m2
18:53 16.0 °C 12.6 °C 1014.8 hPa SSW 7.2 km/h 21.9 km/h 80% 0.0 mm 40 W/m2
18:58 16.1 °C 13.1 °C 1014.8 hPa SSW 11.1 km/h 20.9 km/h 82% 0.0 mm 27 W/m2
19:03 15.9 °C 13.0 °C 1014.8 hPa South 8.7 km/h 27.0 km/h 83% 0.0 mm 29 W/m2
19:08 15.9 °C 12.8 °C 1014.8 hPa SSW 13.4 km/h 27.0 km/h 82% 0.0 mm 27 W/m2
19:13 15.9 °C 13.0 °C 1014.8 hPa SSW 11.1 km/h 23.3 km/h 83% 0.0 mm 38 W/m2
19:18 15.9 °C 13.0 °C 1014.8 hPa South 7.2 km/h 20.9 km/h 83% 0.0 mm 37 W/m2
19:23 16.0 °C 12.9 °C 1014.4 hPa South 14.8 km/h 25.6 km/h 82% 0.0 mm 38 W/m2
19:28 15.9 °C 12.8 °C 1014.8 hPa South 9.7 km/h 25.6 km/h 82% 0.0 mm 29 W/m2
19:33 16.0 °C 12.9 °C 1014.8 hPa South 11.1 km/h 21.9 km/h 82% 0.0 mm 28 W/m2
19:38 15.9 °C 13.0 °C 1014.8 hPa South 9.7 km/h 19.5 km/h 83% 0.0 mm 14 W/m2
19:43 15.8 °C 12.7 °C 1014.8 hPa SSE 11.1 km/h 19.5 km/h 82% 0.0 mm 11 W/m2
19:48 15.9 °C 13.0 °C 1014.8 hPa South 13.4 km/h 19.5 km/h 83% 0.0 mm 11 W/m2
19:53 15.8 °C 12.6 °C 1014.8 hPa South 12.2 km/h 19.5 km/h 81% 0.0 mm 7 W/m2
19:58 15.8 °C 12.7 °C 1014.8 hPa South 8.7 km/h 19.5 km/h 82% 0.0 mm 7 W/m2
20:03 15.8 °C 12.9 °C 1014.8 hPa South 9.7 km/h 17.2 km/h 83% 0.0 mm 6 W/m2
20:08 15.7 °C 12.8 °C 1014.8 hPa South 8.7 km/h 17.2 km/h 83% 0.0 mm 5 W/m2
20:13 15.7 °C 12.8 °C 1014.8 hPa South 11.1 km/h 19.5 km/h 83% 0.0 mm 3 W/m2
20:18 15.7 °C 12.8 °C 1015.1 hPa South 7.2 km/h 19.5 km/h 83% 0.0 mm 2 W/m2
20:23 15.7 °C 12.8 °C 1015.1 hPa South 8.7 km/h 15.8 km/h 83% 0.0 mm 0 W/m2
20:28 15.7 °C 12.8 °C 1015.1 hPa South 7.2 km/h 17.2 km/h 83% 0.0 mm 0 W/m2
20:33 15.7 °C 12.8 °C 1015.1 hPa South 3.5 km/h 19.5 km/h 83% 0.0 mm 0 W/m2
20:38 15.6 °C 12.9 °C 1015.5 hPa South 8.7 km/h 19.5 km/h 84% 0.0 mm 0 W/m2
20:43 15.4 °C 12.7 °C 1015.5 hPa SSE 8.7 km/h 13.4 km/h 84% 0.0 mm 0 W/m2
20:48 15.1 °C 12.8 °C 1015.5 hPa South 7.2 km/h 13.4 km/h 86% 0.3 mm 0 W/m2
20:53 14.9 °C 12.9 °C 1015.8 hPa South 6.1 km/h 15.8 km/h 88% 0.3 mm 0 W/m2
20:58 14.7 °C 12.7 °C 1015.5 hPa South 3.5 km/h 15.8 km/h 88% 0.3 mm 0 W/m2
21:03 14.7 °C 12.9 °C 1015.5 hPa SSE 7.2 km/h 11.1 km/h 89% 0.3 mm 0 W/m2
21:08 14.6 °C 13.0 °C 1015.5 hPa Calm   9.7 km/h 90% 0.3 mm 0 W/m2
21:13 14.5 °C 12.9 °C 1015.5 hPa SE 1.1 km/h 6.1 km/h 90% 0.3 mm 0 W/m2
21:18 14.5 °C 12.9 °C 1015.5 hPa SE 3.5 km/h 6.1 km/h 90% 0.3 mm 0 W/m2
21:23 14.5 °C 12.9 °C 1015.5 hPa SSE 3.5 km/h 8.7 km/h 90% 0.3 mm 0 W/m2
21:28 14.6 °C 12.8 °C 1015.8 hPa SSE 3.5 km/h 9.7 km/h 89% 0.3 mm 0 W/m2
21:33 14.6 °C 12.8 °C 1015.5 hPa South 2.6 km/h 9.7 km/h 89% 0.3 mm 0 W/m2
21:38 14.6 °C 12.8 °C 1015.5 hPa South 3.5 km/h 7.2 km/h 89% 0.3 mm 0 W/m2
21:43 14.6 °C 12.8 °C 1015.8 hPa SSE 2.6 km/h 6.1 km/h 89% 0.3 mm 0 W/m2
21:48 14.7 °C 12.7 °C 1015.8 hPa Calm   6.1 km/h 88% 0.0 mm 0 W/m2
21:53 14.7 °C 12.6 °C 1015.8 hPa Calm   6.1 km/h 87% 0.0 mm 0 W/m2
21:58 14.7 °C 12.6 °C 1015.8 hPa North 2.6 km/h 3.5 km/h 87% 0.0 mm 0 W/m2
22:03 14.7 °C 12.7 °C 1015.8 hPa NW 2.6 km/h 7.2 km/h 88% 0.0 mm 0 W/m2
22:08 14.6 °C 13.0 °C 1016.1 hPa Calm   7.2 km/h 90% 0.0 mm 0 W/m2
22:26 14.3 °C 13.3 °C 1016.1 hPa NW 3.5 km/h 7.2 km/h 94% 0.0 mm 0 W/m2
22:31 14.3 °C 13.5 °C 1016.1 hPa NW 5.0 km/h 7.2 km/h 95% 0.0 mm 0 W/m2
22:36 14.2 °C 13.4 °C 1016.1 hPa NNW 3.5 km/h 7.2 km/h 95% 0.0 mm 0 W/m2
22:41 14.2 °C 13.6 °C 1016.1 hPa NNW 5.0 km/h 7.2 km/h 96% 0.0 mm 0 W/m2
22:46 14.2 °C 13.7 °C 1016.1 hPa NNW 3.5 km/h 7.2 km/h 97% 0.0 mm 0 W/m2
22:51 14.2 °C 13.7 °C 1016.1 hPa NNW 6.1 km/h 8.7 km/h 97% 0.0 mm 0 W/m2
22:56 14.1 °C 13.6 °C 1016.1 hPa NNW 6.1 km/h 8.7 km/h 97% 0.0 mm 0 W/m2
23:01 14.1 °C 13.8 °C 1016.1 hPa NNW 6.1 km/h 8.7 km/h 98% 0.0 mm 0 W/m2
23:06 14.1 °C 13.8 °C 1016.1 hPa NW 7.2 km/h 9.7 km/h 98% 0.0 mm 0 W/m2
23:11 14.0 °C 13.7 °C 1016.1 hPa NW 3.5 km/h 9.7 km/h 98% 0.0 mm 0 W/m2
23:16 14.0 °C 13.7 °C 1016.1 hPa NNW 3.5 km/h 9.7 km/h 98% 0.0 mm 0 W/m2
23:21 14.0 °C 13.7 °C 1016.1 hPa NNW 3.5 km/h 7.2 km/h 98% 0.0 mm 0 W/m2
23:26 14.0 °C 13.7 °C 1016.1 hPa NNW 3.5 km/h 7.2 km/h 98% 0.0 mm 0 W/m2
23:31 14.0 °C 13.7 °C 1016.1 hPa NW 3.5 km/h 7.2 km/h 98% 0.0 mm 0 W/m2
23:36 13.9 °C 13.8 °C 1016.5 hPa NW 3.5 km/h 7.2 km/h 99% 0.0 mm 0 W/m2
23:41 13.9 °C 13.8 °C 1016.1 hPa NW 2.6 km/h 7.2 km/h 99% 0.0 mm 0 W/m2
23:46 13.9 °C 13.8 °C 1016.5 hPa NW 2.6 km/h 8.7 km/h 99% 0.0 mm 0 W/m2
23:51 13.9 °C 13.8 °C 1016.1 hPa NW 1.1 km/h 8.7 km/h 99% 0.0 mm 0 W/m2
23:56 13.9 °C 13.8 °C 1016.1 hPa NNW 3.5 km/h 6.1 km/h 99% 0.3 mm 0 W/m2
Northern Hawkes Bay. New Zealand Historic Data
Compliments of Weather Underground - 2.25 mb